createdAt,value
2023-05-02T00:01:12.465Z,10.18
2023-05-02T00:03:42.295Z,9.98
2023-05-02T00:06:12.245Z,9.94
2023-05-02T00:08:40.717Z,9.98
2023-05-02T00:11:09.436Z,10.06
2023-05-02T00:13:37.682Z,9.74
2023-05-02T00:16:06.418Z,9.90
2023-05-02T00:18:35.223Z,9.86
2023-05-02T00:21:03.415Z,9.97
2023-05-02T00:23:32.953Z,10.11
2023-05-02T00:26:01.556Z,10.17
2023-05-02T00:28:30.142Z,10.31
2023-05-02T00:30:58.673Z,10.03
2023-05-02T00:33:27.007Z,10.09
2023-05-02T00:35:55.025Z,9.97
2023-05-02T00:38:23.504Z,10.05
2023-05-02T00:40:53.723Z,10.01
2023-05-02T00:43:22.488Z,9.89
2023-05-02T00:45:52.561Z,10.07
2023-05-02T00:48:22.345Z,10.06
2023-05-02T00:50:50.538Z,10.02
2023-05-02T00:53:18.873Z,10.01
2023-05-02T00:55:47.458Z,10.13
2023-05-02T00:58:20.121Z,10.00
2023-05-02T01:01:02.348Z,10.10
2023-05-02T01:03:39.107Z,10.15
2023-05-02T01:06:17.006Z,10.11
2023-05-02T01:08:52.549Z,10.11
2023-05-02T01:11:30.480Z,10.08
2023-05-02T01:14:03.030Z,9.96
2023-05-02T01:16:34.589Z,9.96
2023-05-02T01:19:05.021Z,9.91
2023-05-02T01:21:35.604Z,9.82
2023-05-02T01:24:09.925Z,9.66
2023-05-02T01:26:52.410Z,9.72
2023-05-02T01:29:24.448Z,9.47
2023-05-02T01:31:53.739Z,9.35
2023-05-02T01:34:24.422Z,9.38
2023-05-02T01:36:53.674Z,9.37
2023-05-02T01:39:24.495Z,9.29
2023-05-02T01:41:56.043Z,9.10
2023-05-02T01:44:27.344Z,9.20
2023-05-02T01:46:57.809Z,9.45
2023-05-02T01:49:28.447Z,9.55
2023-05-02T01:51:59.775Z,9.71
2023-05-02T01:54:28.824Z,9.67
2023-05-02T01:56:58.039Z,9.73
2023-05-02T01:59:31.766Z,9.74
2023-05-02T02:02:03.478Z,9.58
2023-05-02T02:04:32.893Z,9.79
2023-05-02T02:07:07.525Z,9.72
2023-05-02T02:09:36.036Z,9.70
2023-05-02T02:12:08.841Z,9.53
2023-05-02T02:14:40.650Z,9.38
2023-05-02T02:17:14.771Z,9.51
2023-05-02T02:19:44.101Z,9.48
2023-05-02T02:22:15.021Z,9.58
2023-05-02T02:24:45.013Z,9.49
2023-05-02T02:27:13.236Z,9.33
2023-05-02T02:29:42.653Z,9.46
2023-05-02T02:32:11.058Z,9.58
2023-05-02T02:34:39.477Z,9.55
2023-05-02T02:37:12.529Z,9.54
2023-05-02T02:39:50.635Z,9.46
2023-05-02T02:42:27.100Z,9.60
2023-05-02T02:45:12.169Z,9.46
2023-05-02T02:47:45.444Z,9.49
2023-05-02T02:50:21.425Z,9.49
2023-05-02T02:52:56.923Z,9.48
2023-05-02T02:55:38.229Z,9.35
2023-05-02T02:58:17.696Z,9.34
2023-05-02T03:00:50.236Z,9.37
2023-05-02T03:03:20.805Z,9.42
2023-05-02T03:05:49.885Z,9.33
2023-05-02T03:08:18.107Z,9.43
2023-05-02T03:10:46.372Z,9.49
2023-05-02T03:13:14.548Z,9.39
2023-05-02T03:16:36.836Z,9.26
2023-05-02T03:19:07.141Z,9.22
2023-05-02T03:21:36.357Z,8.99
2023-05-02T03:24:05.795Z,9.03
2023-05-02T03:26:34.136Z,8.93
2023-05-02T03:29:02.466Z,8.82
2023-05-02T03:31:31.249Z,8.98
2023-05-02T03:33:59.590Z,8.86
2023-05-02T03:36:29.519Z,8.74
2023-05-02T03:38:57.896Z,8.80
2023-05-02T03:41:26.256Z,8.76
2023-05-02T03:43:55.072Z,8.67
2023-05-02T03:46:23.523Z,8.72
2023-05-02T03:48:52.212Z,8.77
2023-05-02T03:51:20.428Z,8.53
2023-05-02T03:53:50.060Z,8.66
2023-05-02T03:56:21.095Z,8.72
2023-05-02T03:58:50.686Z,8.68
2023-05-02T04:01:19.133Z,8.81
2023-05-02T04:03:47.361Z,8.81
2023-05-02T04:06:16.295Z,8.79
2023-05-02T04:08:44.703Z,8.66
2023-05-02T04:11:14.732Z,8.59
2023-05-02T04:13:43.245Z,8.76
2023-05-02T04:16:11.634Z,8.71
2023-05-02T04:18:39.740Z,8.76
2023-05-02T04:21:10.643Z,8.74
2023-05-02T04:23:39.581Z,8.72
2023-05-02T04:26:07.877Z,8.64
2023-05-02T04:28:37.938Z,8.71
2023-05-02T04:31:06.175Z,8.76
2023-05-02T04:33:34.542Z,8.77
2023-05-02T04:36:03.154Z,8.81
2023-05-02T04:38:31.428Z,8.89
2023-05-02T04:40:59.768Z,8.93
2023-05-02T04:43:38.913Z,9.04
2023-05-02T04:46:07.046Z,9.03
2023-05-02T04:48:35.601Z,9.06
2023-05-02T04:51:04.024Z,9.18
2023-05-02T04:53:32.339Z,9.23
2023-05-02T04:56:00.750Z,9.17
2023-05-02T04:58:29.577Z,9.28
2023-05-02T05:01:02.101Z,9.23
2023-05-02T05:03:31.420Z,9.25
2023-05-02T05:05:59.698Z,9.24
2023-05-02T05:08:28.115Z,9.26
2023-05-02T05:10:56.791Z,9.27
2023-05-02T05:13:25.134Z,9.26
2023-05-02T05:15:54.235Z,9.15
2023-05-02T05:18:23.921Z,9.40
2023-05-02T05:20:52.169Z,9.38
2023-05-02T05:23:20.890Z,9.47
2023-05-02T05:25:49.375Z,9.33
2023-05-02T05:28:18.652Z,9.33
2023-05-02T05:30:46.986Z,9.37
2023-05-02T05:33:15.877Z,9.18
2023-05-02T05:35:45.869Z,9.21
2023-05-02T05:38:14.144Z,9.16
2023-05-02T05:40:42.453Z,9.24
2023-05-02T05:43:11.042Z,9.10
2023-05-02T05:45:39.314Z,9.04
2023-05-02T05:48:08.204Z,9.10
2023-05-02T05:50:36.754Z,9.17
2023-05-02T05:53:06.254Z,9.08
2023-05-02T05:55:37.227Z,9.27
2023-05-02T05:58:05.800Z,9.41
2023-05-02T06:00:36.310Z,9.21
2023-05-02T06:03:06.605Z,9.29
2023-05-02T06:05:36.092Z,9.46
2023-05-02T06:08:06.294Z,9.54
2023-05-02T06:10:34.555Z,9.60
2023-05-02T06:13:02.807Z,9.68
2023-05-02T06:15:31.818Z,9.70
2023-05-02T06:18:00.201Z,9.81
2023-05-02T06:20:28.435Z,9.62
2023-05-02T06:22:56.892Z,9.73
2023-05-02T06:25:26.542Z,9.57
2023-05-02T06:27:54.703Z,9.53
2023-05-02T06:30:23.220Z,9.76
2023-05-02T06:32:51.277Z,9.75
2023-05-02T06:35:19.663Z,9.66
2023-05-02T06:37:48.014Z,9.77
2023-05-02T06:40:16.264Z,9.83
2023-05-02T06:42:45.739Z,9.93
2023-05-02T06:45:14.194Z,10.05
2023-05-02T06:47:42.256Z,10.02
2023-05-02T06:50:11.588Z,10.19
2023-05-02T06:52:40.090Z,10.00
2023-05-02T06:55:08.988Z,10.05
2023-05-02T06:57:37.104Z,9.98
2023-05-02T07:00:08.499Z,10.34
2023-05-02T07:02:36.711Z,10.33
2023-05-02T07:05:05.109Z,10.25
2023-05-02T07:07:33.316Z,10.23
2023-05-02T07:10:02.213Z,10.17
2023-05-02T07:12:30.941Z,10.26
2023-05-02T07:14:59.422Z,10.16
2023-05-02T07:17:29.226Z,10.26
2023-05-02T07:19:57.751Z,10.59
2023-05-02T07:22:26.307Z,10.60
2023-05-02T07:24:59.523Z,10.81
2023-05-02T07:27:28.099Z,10.64
2023-05-02T07:29:56.401Z,10.84
2023-05-02T07:32:25.361Z,10.81
2023-05-02T07:34:56.363Z,10.64
2023-05-02T07:37:24.573Z,10.89
2023-05-02T07:39:52.674Z,10.79
2023-05-02T07:42:21.041Z,10.88
2023-05-02T07:44:49.268Z,10.89
2023-05-02T07:47:17.838Z,10.93
2023-05-02T07:49:46.299Z,10.80
2023-05-02T07:52:15.796Z,10.90
2023-05-02T07:54:43.946Z,11.14
2023-05-02T07:57:13.433Z,11.05
2023-05-02T07:59:41.663Z,11.27
2023-05-02T08:02:11.411Z,11.24
2023-05-02T08:04:40.580Z,11.14
2023-05-02T08:07:08.942Z,11.65
2023-05-02T08:09:38.846Z,12.39
2023-05-02T08:12:07.158Z,13.02
2023-05-02T08:14:35.599Z,13.62
2023-05-02T08:17:03.772Z,14.25
2023-05-02T08:19:32.497Z,14.42
2023-05-02T08:22:01.024Z,13.95
2023-05-02T08:24:29.738Z,13.41
2023-05-02T08:26:59.835Z,13.48
2023-05-02T08:29:28.058Z,13.53
2023-05-02T08:31:56.189Z,13.31
2023-05-02T08:34:24.821Z,13.50
2023-05-02T08:36:52.953Z,13.60
2023-05-02T08:39:21.090Z,13.55
2023-05-02T08:41:49.753Z,13.62
2023-05-02T08:44:19.685Z,13.68
2023-05-02T08:46:49.491Z,13.69
2023-05-02T08:49:19.690Z,13.28
2023-05-02T08:51:51.703Z,13.38
2023-05-02T08:54:22.532Z,13.59
2023-05-02T08:56:50.862Z,13.71
2023-05-02T08:59:20.600Z,13.85
2023-05-02T09:01:51.214Z,13.89
2023-05-02T09:04:20.645Z,13.82
2023-05-02T09:06:49.110Z,13.51
2023-05-02T09:09:18.994Z,13.62
2023-05-02T09:11:48.768Z,13.75
2023-05-02T09:14:17.928Z,13.77
2023-05-02T09:16:48.671Z,13.85
2023-05-02T09:19:26.672Z,13.81
2023-05-02T09:22:01.790Z,13.53
2023-05-02T09:24:30.761Z,13.41
2023-05-02T09:27:01.123Z,13.73
2023-05-02T09:29:30.933Z,13.41
2023-05-02T09:32:00.822Z,13.42
2023-05-02T09:34:29.021Z,13.12
2023-05-02T09:36:57.920Z,12.95
2023-05-02T09:39:29.452Z,12.85
2023-05-02T09:41:59.038Z,12.92
2023-05-02T09:44:29.031Z,13.11
2023-05-02T09:46:59.316Z,12.80
2023-05-02T09:49:46.647Z,13.18
2023-05-02T09:52:16.507Z,13.04
2023-05-02T09:54:46.890Z,13.19
2023-05-02T09:57:15.440Z,13.09
2023-05-02T09:59:54.514Z,13.37
2023-05-02T10:02:23.429Z,13.79
2023-05-02T10:04:54.866Z,13.62
2023-05-02T10:07:23.637Z,13.33
2023-05-02T10:09:56.041Z,13.25
2023-05-02T10:12:27.934Z,13.38
2023-05-02T10:15:02.428Z,13.21
2023-05-02T10:17:37.189Z,13.22
2023-05-02T10:20:08.519Z,13.06
2023-05-02T10:22:37.986Z,13.31
2023-05-02T10:25:07.177Z,13.13
2023-05-02T10:27:35.555Z,13.28
2023-05-02T10:30:04.574Z,13.08
2023-05-02T10:32:35.375Z,13.12
2023-05-02T10:35:07.974Z,13.19
2023-05-02T10:37:39.168Z,13.42
2023-05-02T10:40:11.244Z,13.59
2023-05-02T10:42:41.716Z,13.25
2023-05-02T10:45:13.666Z,13.62
2023-05-02T10:47:42.567Z,13.29
2023-05-02T10:50:12.414Z,13.09
2023-05-02T10:52:41.392Z,13.33
2023-05-02T10:55:17.085Z,13.51
2023-05-02T10:58:18.976Z,13.30
2023-05-02T11:00:47.525Z,12.82
2023-05-02T11:03:15.799Z,13.04
2023-05-02T11:06:09.973Z,13.26
2023-05-02T11:08:38.362Z,13.20
2023-05-02T11:11:43.538Z,13.28
2023-05-02T11:14:14.038Z,13.36
2023-05-02T11:17:08.193Z,13.52
2023-05-02T11:20:09.635Z,13.45
2023-05-02T11:22:40.589Z,13.61
2023-05-02T11:25:33.067Z,13.41
2023-05-02T11:28:02.130Z,13.09
2023-05-02T11:30:41.758Z,13.26
2023-05-02T11:33:17.705Z,13.24
2023-05-02T11:35:47.388Z,13.29
2023-05-02T11:38:19.281Z,13.34
2023-05-02T11:40:58.618Z,13.41
2023-05-02T11:43:31.292Z,13.08
2023-05-02T11:46:02.277Z,13.06
2023-05-02T11:48:33.287Z,13.05
2023-05-02T11:51:05.412Z,13.14
2023-05-02T11:53:41.528Z,13.42
2023-05-02T11:56:10.249Z,13.61
2023-05-02T11:58:38.500Z,13.97
2023-05-02T12:01:15.171Z,13.78
2023-05-02T12:03:45.824Z,13.57
2023-05-02T12:06:16.045Z,13.56
2023-05-02T12:08:46.447Z,13.60
2023-05-02T12:11:16.596Z,13.61
2023-05-02T12:13:49.993Z,13.77
2023-05-02T12:16:19.752Z,13.59
2023-05-02T12:18:48.965Z,13.48
2023-05-02T12:21:18.269Z,13.69
2023-05-02T12:23:48.434Z,13.94
2023-05-02T12:26:21.345Z,13.94
2023-05-02T12:28:51.094Z,14.12
2023-05-02T12:31:19.892Z,14.07
2023-05-02T12:33:50.769Z,13.80
2023-05-02T12:36:20.210Z,14.00
2023-05-02T12:38:55.293Z,14.04
2023-05-02T12:41:36.202Z,13.56
2023-05-02T12:44:07.404Z,13.88
2023-05-02T12:46:36.646Z,13.94
2023-05-02T12:49:08.317Z,14.24
2023-05-02T12:51:39.890Z,14.33
2023-05-02T12:54:09.550Z,14.21
2023-05-02T12:56:41.464Z,14.11
2023-05-02T12:59:10.153Z,14.07
2023-05-02T13:01:38.340Z,14.12
2023-05-02T13:04:07.034Z,14.23
2023-05-02T13:06:38.202Z,14.34
2023-05-02T13:09:07.568Z,14.26
2023-05-02T13:11:38.482Z,13.96
2023-05-02T13:14:06.652Z,14.05
2023-05-02T13:16:36.891Z,14.14
2023-05-02T13:19:05.974Z,14.24
2023-05-02T13:21:34.012Z,14.34
2023-05-02T13:24:04.362Z,14.57
2023-05-02T13:26:32.781Z,14.39
2023-05-02T13:29:02.453Z,14.37
2023-05-02T13:31:31.295Z,14.24
2023-05-02T13:34:00.503Z,14.11
2023-05-02T13:36:28.856Z,14.27
2023-05-02T13:38:57.870Z,14.44
2023-05-02T13:41:26.414Z,14.21
2023-05-02T13:43:54.978Z,14.32
2023-05-02T13:46:24.848Z,14.55
2023-05-02T13:48:53.027Z,14.23
2023-05-02T13:51:21.701Z,14.33
2023-05-02T13:53:50.304Z,14.51
2023-05-02T13:56:18.752Z,14.62
2023-05-02T13:58:46.947Z,14.56
2023-05-02T14:01:15.061Z,14.49
2023-05-02T14:03:44.964Z,14.36
2023-05-02T14:06:13.239Z,14.36
2023-05-02T14:08:41.996Z,14.50
2023-05-02T14:11:10.657Z,14.87
2023-05-02T14:13:38.888Z,15.16
2023-05-02T14:16:07.926Z,14.48
2023-05-02T14:18:36.356Z,14.33
2023-05-02T14:21:06.275Z,14.61
2023-05-02T14:23:35.457Z,14.35
2023-05-02T14:26:04.200Z,14.28
2023-05-02T14:28:32.802Z,14.50
2023-05-02T14:31:01.696Z,15.00
2023-05-02T14:33:30.093Z,14.59
2023-05-02T14:35:58.473Z,14.93
2023-05-02T14:38:28.357Z,14.92
2023-05-02T14:40:56.642Z,15.13
2023-05-02T14:43:24.766Z,15.07
2023-05-02T14:45:53.729Z,14.91
2023-05-02T14:48:21.944Z,14.53
2023-05-02T14:50:50.078Z,14.49
2023-05-02T14:53:18.789Z,14.88
2023-05-02T14:55:48.573Z,14.52
2023-05-02T14:58:21.037Z,14.46
2023-05-02T15:00:49.611Z,14.19
2023-05-02T15:03:18.093Z,14.05
2023-05-02T15:05:46.682Z,14.35
2023-05-02T15:08:14.935Z,14.45
2023-05-02T15:10:43.126Z,14.33
2023-05-02T15:13:13.179Z,14.45
2023-05-02T15:15:42.226Z,14.17
2023-05-02T15:18:10.460Z,13.79
2023-05-02T15:20:38.647Z,14.08
2023-05-02T15:23:07.181Z,14.16
2023-05-02T15:25:35.739Z,13.84
2023-05-02T15:28:04.055Z,13.92
2023-05-02T15:30:34.252Z,13.83
2023-05-02T15:33:03.422Z,13.82
2023-05-02T15:35:31.882Z,13.92
2023-05-02T15:38:00.774Z,14.16
2023-05-02T15:40:28.965Z,14.17
2023-05-02T15:42:57.097Z,13.99
2023-05-02T15:45:25.372Z,13.83
2023-05-02T15:47:55.200Z,14.33
2023-05-02T15:50:23.880Z,14.64
2023-05-02T15:52:52.054Z,14.72
2023-05-02T15:55:20.410Z,14.72
2023-05-02T15:57:52.006Z,14.68
2023-05-02T16:00:21.380Z,14.24
2023-05-02T16:02:49.628Z,14.00
2023-05-02T16:05:19.300Z,14.27
2023-05-02T16:07:47.742Z,14.38
2023-05-02T16:10:16.358Z,14.53
2023-05-02T16:12:44.644Z,14.60
2023-05-02T16:15:13.042Z,14.61
2023-05-02T16:17:43.008Z,14.61
2023-05-02T16:20:13.072Z,14.56
2023-05-02T16:22:44.375Z,14.13
2023-05-02T16:25:12.824Z,14.19
2023-05-02T16:27:41.433Z,14.12
2023-05-02T16:30:10.799Z,14.25
2023-05-02T16:32:39.178Z,14.35
2023-05-02T16:35:10.905Z,14.46
2023-05-02T16:37:40.127Z,14.48
2023-05-02T16:40:11.610Z,14.49
2023-05-02T16:42:40.687Z,14.34
2023-05-02T16:45:09.952Z,14.43
2023-05-02T16:47:38.742Z,14.33
2023-05-02T16:50:07.976Z,14.21
2023-05-02T16:52:38.127Z,13.71
2023-05-02T16:55:07.431Z,13.79
2023-05-02T16:57:39.389Z,13.46
2023-05-02T17:00:12.956Z,13.60
2023-05-02T17:02:42.083Z,12.86
2023-05-02T17:05:11.891Z,13.34
2023-05-02T17:07:40.389Z,13.66
2023-05-02T17:10:10.061Z,13.57
2023-05-02T17:12:40.318Z,13.57
2023-05-02T17:15:11.598Z,13.89
2023-05-02T17:17:39.851Z,14.03
2023-05-02T17:20:10.784Z,13.93
2023-05-02T17:22:41.637Z,13.96
2023-05-02T17:25:11.423Z,13.59
2023-05-02T17:27:42.085Z,13.37
2023-05-02T17:30:14.571Z,13.41
2023-05-02T17:32:43.157Z,13.54
2023-05-02T17:35:11.884Z,13.61
2023-05-02T17:37:40.917Z,13.17
2023-05-02T17:40:10.058Z,13.16
2023-05-02T17:42:38.247Z,13.39
2023-05-02T17:45:09.876Z,13.59
2023-05-02T17:47:38.487Z,13.74
2023-05-02T17:50:07.973Z,13.76
2023-05-02T17:52:36.773Z,13.56
2023-05-02T17:55:05.199Z,13.44
2023-05-02T17:57:34.175Z,13.37
2023-05-02T18:00:04.625Z,13.25
2023-05-02T18:02:34.665Z,13.22
2023-05-02T18:05:04.122Z,13.35
2023-05-02T18:07:32.680Z,13.55
2023-05-02T18:10:03.825Z,13.63
2023-05-02T18:12:37.409Z,13.77
2023-05-02T18:15:06.696Z,13.84
2023-05-02T18:17:38.346Z,13.71
2023-05-02T18:20:11.561Z,13.64
2023-05-02T18:22:42.333Z,13.70
2023-05-02T18:25:10.860Z,13.65
2023-05-02T18:27:41.149Z,13.56
2023-05-02T18:30:10.362Z,13.54
2023-05-02T18:32:40.256Z,13.68
2023-05-02T18:35:10.678Z,13.65
2023-05-02T18:37:38.840Z,13.49
2023-05-02T18:40:08.692Z,13.65
2023-05-02T18:42:37.316Z,13.64
2023-05-02T18:45:06.414Z,13.53
2023-05-02T18:47:35.127Z,13.55
2023-05-02T18:50:05.042Z,13.55
2023-05-02T18:52:36.051Z,13.57
2023-05-02T18:55:05.165Z,13.53
2023-05-02T18:57:33.890Z,13.52
2023-05-02T19:00:02.403Z,13.38
2023-05-02T19:02:31.438Z,13.35
2023-05-02T19:05:00.186Z,13.32
2023-05-02T19:07:30.454Z,13.32
2023-05-02T19:09:59.005Z,13.27
2023-05-02T19:12:27.535Z,13.28
2023-05-02T19:14:56.208Z,13.28
2023-05-02T19:17:25.966Z,13.28
2023-05-02T19:19:56.135Z,13.13
2023-05-02T19:22:31.820Z,13.17
2023-05-02T19:25:00.138Z,13.22
2023-05-02T19:27:29.663Z,13.37
2023-05-02T19:29:59.542Z,13.46
2023-05-02T19:32:27.880Z,13.52
2023-05-02T19:34:57.034Z,13.47
2023-05-02T19:37:25.142Z,13.44
2023-05-02T19:39:54.756Z,13.40
2023-05-02T19:42:23.271Z,13.36
2023-05-02T19:44:51.544Z,13.29
2023-05-02T19:47:19.673Z,13.14
2023-05-02T19:49:49.173Z,13.00
2023-05-02T19:52:17.427Z,12.81
2023-05-02T19:54:45.528Z,12.72
2023-05-02T19:57:15.096Z,12.60
2023-05-02T19:59:43.254Z,12.58
2023-05-02T20:02:12.714Z,12.57
2023-05-02T20:04:40.962Z,12.54
2023-05-02T20:07:09.374Z,12.37
2023-05-02T20:09:37.677Z,12.49
2023-05-02T20:12:06.286Z,12.44
2023-05-02T20:14:35.985Z,12.45
2023-05-02T20:17:04.792Z,12.40
2023-05-02T20:19:37.186Z,12.50
2023-05-02T20:22:05.466Z,12.49
2023-05-02T20:24:33.805Z,12.50
2023-05-02T20:27:02.753Z,12.60
2023-05-02T20:29:31.071Z,12.45
2023-05-02T20:32:01.073Z,12.57
2023-05-02T20:34:29.625Z,12.49
2023-05-02T20:36:58.703Z,12.39
2023-05-02T20:39:27.235Z,12.34
2023-05-02T20:41:59.568Z,12.46
2023-05-02T20:44:28.664Z,12.43
2023-05-02T20:46:56.868Z,12.45
2023-05-02T20:49:26.672Z,12.34
2023-05-02T20:51:55.226Z,12.38
2023-05-02T20:54:23.653Z,12.39
2023-05-02T20:56:51.874Z,12.37
2023-05-02T20:59:22.844Z,12.40
2023-05-02T21:01:56.606Z,12.19
2023-05-02T21:04:27.283Z,12.35
2023-05-02T21:06:56.872Z,12.50
2023-05-02T21:09:25.856Z,12.58
2023-05-02T21:11:55.476Z,12.56
2023-05-02T21:14:25.159Z,12.52
2023-05-02T21:16:53.823Z,12.51
2023-05-02T21:19:25.102Z,12.43
2023-05-02T21:21:55.203Z,12.54
2023-05-02T21:24:23.301Z,12.48
2023-05-02T21:26:58.665Z,12.47
2023-05-02T21:29:28.056Z,12.49
2023-05-02T21:31:56.257Z,12.54
2023-05-02T21:34:24.704Z,12.54
2023-05-02T21:36:54.254Z,12.47
2023-05-02T21:39:22.349Z,12.52
2023-05-02T21:41:50.708Z,12.56
2023-05-02T21:44:22.397Z,12.65
2023-05-02T21:46:56.802Z,12.62
2023-05-02T21:49:41.408Z,12.55
2023-05-02T21:52:22.123Z,12.34
2023-05-02T21:55:05.164Z,12.74
2023-05-02T21:57:41.998Z,12.66
2023-05-02T22:00:14.098Z,12.52
2023-05-02T22:02:44.915Z,12.76
2023-05-02T22:05:17.869Z,12.65
2023-05-02T22:07:50.548Z,12.57
2023-05-02T22:10:19.533Z,12.47
2023-05-02T22:12:49.327Z,12.47
2023-05-02T22:15:19.296Z,12.35
2023-05-02T22:17:52.736Z,12.43
2023-05-02T22:20:26.255Z,12.27
2023-05-02T22:23:04.279Z,11.94
2023-05-02T22:25:42.513Z,11.72
2023-05-02T22:28:12.311Z,11.99
2023-05-02T22:30:43.098Z,12.09
2023-05-02T22:33:12.268Z,12.06
2023-05-02T22:35:41.129Z,12.01
2023-05-02T22:38:11.260Z,12.04
2023-05-02T22:40:39.842Z,12.06
2023-05-02T22:43:08.203Z,12.09
2023-05-02T22:45:37.037Z,12.07
2023-05-02T22:48:05.852Z,11.97
2023-05-02T22:50:34.160Z,11.91
2023-05-02T22:53:04.295Z,11.84
2023-05-02T22:55:34.191Z,11.83
2023-05-02T22:58:02.891Z,11.92
2023-05-02T23:00:31.634Z,11.91
2023-05-02T23:03:00.300Z,11.86
2023-05-02T23:05:32.084Z,11.82
2023-05-02T23:08:00.804Z,11.91
2023-05-02T23:10:28.977Z,11.98
2023-05-02T23:12:58.542Z,11.88
2023-05-02T23:15:27.525Z,11.77
2023-05-02T23:17:55.930Z,11.73
2023-05-02T23:20:24.050Z,11.63
2023-05-02T23:22:52.835Z,11.55
2023-05-02T23:25:21.524Z,11.46
2023-05-02T23:27:49.852Z,11.40
2023-05-02T23:30:19.853Z,11.41
2023-05-02T23:32:48.096Z,11.47
2023-05-02T23:35:16.146Z,11.53
2023-05-02T23:37:44.818Z,11.60
2023-05-02T23:40:13.565Z,11.75
2023-05-02T23:42:41.949Z,11.70
2023-05-02T23:45:11.046Z,11.55
2023-05-02T23:47:40.909Z,11.48
2023-05-02T23:50:09.861Z,11.43
2023-05-02T23:52:38.534Z,11.43
2023-05-02T23:55:10.768Z,11.36
2023-05-02T23:57:39.573Z,11.39
